sensor_id;sensor_type;location;lat;lon;timestamp;temperature;humidity
21590;DHT22;10957;50.968;6.828;2023-02-15T00:04:29;2.50;99.90
21590;DHT22;10957;50.968;6.828;2023-02-15T00:09:47;2.40;99.90
21590;DHT22;10957;50.968;6.828;2023-02-15T00:14:48;2.50;99.90
21590;DHT22;10957;50.968;6.828;2023-02-15T00:19:49;2.50;99.90
21590;DHT22;10957;50.968;6.828;2023-02-15T00:24:50;2.50;99.90
21590;DHT22;10957;50.968;6.828;2023-02-15T00:29:52;2.30;99.90
21590;DHT22;10957;50.968;6.828;2023-02-15T00:34:53;1.90;99.90
21590;DHT22;10957;50.968;6.828;2023-02-15T00:39:54;2.60;99.90
21590;DHT22;10957;50.968;6.828;2023-02-15T00:44:55;2.20;99.90
21590;DHT22;10957;50.968;6.828;2023-02-15T00:49:56;2.30;99.90
21590;DHT22;10957;50.968;6.828;2023-02-15T00:54:57;2.20;99.90
21590;DHT22;10957;50.968;6.828;2023-02-15T00:59:58;2.40;99.90
21590;DHT22;10957;50.968;6.828;2023-02-15T01:05:00;2.10;99.90
21590;DHT22;10957;50.968;6.828;2023-02-15T01:10:01;2.40;99.90
21590;DHT22;10957;50.968;6.828;2023-02-15T01:15:02;2.20;99.90
21590;DHT22;10957;50.968;6.828;2023-02-15T01:20:05;2.20;99.90
21590;DHT22;10957;50.968;6.828;2023-02-15T01:25:06;2.20;99.90
21590;DHT22;10957;50.968;6.828;2023-02-15T01:30:08;2.40;99.90
21590;DHT22;10957;50.968;6.828;2023-02-15T01:35:10;2.20;99.90
21590;DHT22;10957;50.968;6.828;2023-02-15T01:40:14;2.10;99.90
21590;DHT22;10957;50.968;6.828;2023-02-15T01:45:28;2.30;99.90
21590;DHT22;10957;50.968;6.828;2023-02-15T01:56:13;2.00;99.90
21590;DHT22;10957;50.968;6.828;2023-02-15T02:01:08;2.00;99.90
21590;DHT22;10957;50.968;6.828;2023-02-15T02:06:10;2.00;99.90
21590;DHT22;10957;50.968;6.828;2023-02-15T02:11:15;2.30;99.90
21590;DHT22;10957;50.968;6.828;2023-02-15T02:22:10;1.90;99.90
21590;DHT22;10957;50.968;6.828;2023-02-15T02:27:41;1.80;99.90
21590;DHT22;10957;50.968;6.828;2023-02-15T02:42:56;2.00;99.90
21590;DHT22;10957;50.968;6.828;2023-02-15T02:48:05;1.90;99.90
21590;DHT22;10957;50.968;6.828;2023-02-15T02:53:09;1.10;99.90
21590;DHT22;10957;50.968;6.828;2023-02-15T03:03:47;1.70;99.90
21590;DHT22;10957;50.968;6.828;2023-02-15T03:08:56;1.90;99.90
21590;DHT22;10957;50.968;6.828;2023-02-15T03:13:59;1.50;99.90
21590;DHT22;10957;50.968;6.828;2023-02-15T03:19:22;1.50;99.90
21590;DHT22;10957;50.968;6.828;2023-02-15T03:24:28;1.60;99.90
21590;DHT22;10957;50.968;6.828;2023-02-15T03:29:31;1.80;99.90
21590;DHT22;10957;50.968;6.828;2023-02-15T03:34:34;1.50;99.90
21590;DHT22;10957;50.968;6.828;2023-02-15T03:39:47;1.60;99.90
21590;DHT22;10957;50.968;6.828;2023-02-15T03:44:58;1.20;99.90
21590;DHT22;10957;50.968;6.828;2023-02-15T03:55:30;1.40;99.90
21590;DHT22;10957;50.968;6.828;2023-02-15T04:00:36;1.40;99.90
21590;DHT22;10957;50.968;6.828;2023-02-15T04:05:56;1.50;99.90
21590;DHT22;10957;50.968;6.828;2023-02-15T04:10:57;1.30;99.90
21590;DHT22;10957;50.968;6.828;2023-02-15T04:16:01;1.30;99.90
21590;DHT22;10957;50.968;6.828;2023-02-15T04:21:04;1.30;99.90
21590;DHT22;10957;50.968;6.828;2023-02-15T04:26:24;1.40;99.90
21590;DHT22;10957;50.968;6.828;2023-02-15T04:31:25;1.20;99.90
21590;DHT22;10957;50.968;6.828;2023-02-15T04:36:26;1.40;99.90
21590;DHT22;10957;50.968;6.828;2023-02-15T04:41:28;1.40;99.90
21590;DHT22;10957;50.968;6.828;2023-02-15T04:46:29;1.50;99.90
21590;DHT22;10957;50.968;6.828;2023-02-15T04:51:30;1.40;99.90
21590;DHT22;10957;50.968;6.828;2023-02-15T04:56:31;1.40;99.90
21590;DHT22;10957;50.968;6.828;2023-02-15T05:01:34;1.20;99.90
21590;DHT22;10957;50.968;6.828;2023-02-15T05:06:35;1.30;99.90
21590;DHT22;10957;50.968;6.828;2023-02-15T05:11:37;1.60;99.90
21590;DHT22;10957;50.968;6.828;2023-02-15T05:16:38;0.90;99.90
21590;DHT22;10957;50.968;6.828;2023-02-15T05:21:39;1.30;99.90
21590;DHT22;10957;50.968;6.828;2023-02-15T05:26:40;1.40;99.90
21590;DHT22;10957;50.968;6.828;2023-02-15T05:32:00;1.20;99.90
21590;DHT22;10957;50.968;6.828;2023-02-15T05:37:01;1.30;99.90
21590;DHT22;10957;50.968;6.828;2023-02-15T05:42:03;1.50;99.90
21590;DHT22;10957;50.968;6.828;2023-02-15T05:47:04;1.40;99.90
21590;DHT22;10957;50.968;6.828;2023-02-15T05:52:08;1.00;99.90
21590;DHT22;10957;50.968;6.828;2023-02-15T05:57:09;1.30;99.90
21590;DHT22;10957;50.968;6.828;2023-02-15T06:02:10;1.50;99.90
21590;DHT22;10957;50.968;6.828;2023-02-15T06:07:12;1.30;99.90
21590;DHT22;10957;50.968;6.828;2023-02-15T06:12:13;1.20;99.90
21590;DHT22;10957;50.968;6.828;2023-02-15T06:17:14;1.10;99.90
21590;DHT22;10957;50.968;6.828;2023-02-15T06:22:17;1.20;99.90
21590;DHT22;10957;50.968;6.828;2023-02-15T06:27:18;1.40;99.90
21590;DHT22;10957;50.968;6.828;2023-02-15T06:32:20;1.20;99.90
21590;DHT22;10957;50.968;6.828;2023-02-15T06:37:21;1.10;99.90
21590;DHT22;10957;50.968;6.828;2023-02-15T06:42:22;1.20;99.90
21590;DHT22;10957;50.968;6.828;2023-02-15T06:47:23;1.20;99.90
21590;DHT22;10957;50.968;6.828;2023-02-15T06:52:25;1.30;99.90
21590;DHT22;10957;50.968;6.828;2023-02-15T06:57:26;1.10;99.90
21590;DHT22;10957;50.968;6.828;2023-02-15T07:02:27;1.40;99.90
21590;DHT22;10957;50.968;6.828;2023-02-15T07:07:29;1.50;99.90
21590;DHT22;10957;50.968;6.828;2023-02-15T07:12:30;1.20;99.90
21590;DHT22;10957;50.968;6.828;2023-02-15T07:17:44;1.30;99.90
21590;DHT22;10957;50.968;6.828;2023-02-15T07:22:45;1.30;99.90
21590;DHT22;10957;50.968;6.828;2023-02-15T07:27:46;1.40;99.90
21590;DHT22;10957;50.968;6.828;2023-02-15T07:32:48;1.40;99.90
21590;DHT22;10957;50.968;6.828;2023-02-15T07:38:09;1.50;99.90
21590;DHT22;10957;50.968;6.828;2023-02-15T07:43:11;1.60;99.90
21590;DHT22;10957;50.968;6.828;2023-02-15T07:48:12;1.70;99.90
21590;DHT22;10957;50.968;6.828;2023-02-15T07:53:14;1.90;99.90
21590;DHT22;10957;50.968;6.828;2023-02-15T07:58:15;1.80;99.90
21590;DHT22;10957;50.968;6.828;2023-02-15T08:03:16;1.70;99.90
21590;DHT22;10957;50.968;6.828;2023-02-15T08:08:17;1.80;99.90
21590;DHT22;10957;50.968;6.828;2023-02-15T08:13:30;2.00;99.90
21590;DHT22;10957;50.968;6.828;2023-02-15T08:18:32;2.00;99.90
21590;DHT22;10957;50.968;6.828;2023-02-15T08:23:33;2.40;99.90
21590;DHT22;10957;50.968;6.828;2023-02-15T08:28:34;2.50;99.90
21590;DHT22;10957;50.968;6.828;2023-02-15T08:33:36;2.60;99.90
21590;DHT22;10957;50.968;6.828;2023-02-15T08:38:38;2.60;99.90
21590;DHT22;10957;50.968;6.828;2023-02-15T08:43:41;2.60;99.90
21590;DHT22;10957;50.968;6.828;2023-02-15T08:48:42;3.10;99.90
21590;DHT22;10957;50.968;6.828;2023-02-15T08:53:55;3.10;99.90
21590;DHT22;10957;50.968;6.828;2023-02-15T08:58:56;3.40;99.90
21590;DHT22;10957;50.968;6.828;2023-02-15T09:04:05;3.50;99.90
21590;DHT22;10957;50.968;6.828;2023-02-15T09:09:10;3.70;99.90
21590;DHT22;10957;50.968;6.828;2023-02-15T09:14:18;3.70;99.90
21590;DHT22;10957;50.968;6.828;2023-02-15T09:19:21;3.70;99.90
21590;DHT22;10957;50.968;6.828;2023-02-15T09:24:23;4.20;99.90
21590;DHT22;10957;50.968;6.828;2023-02-15T09:29:24;4.40;99.90
21590;DHT22;10957;50.968;6.828;2023-02-15T09:34:25;4.40;99.90
21590;DHT22;10957;50.968;6.828;2023-02-15T09:39:26;4.80;99.90
21590;DHT22;10957;50.968;6.828;2023-02-15T10:17:06;5.80;27.40
21590;DHT22;10957;50.968;6.828;2023-02-15T10:22:29;5.40;15.50
21590;DHT22;10957;50.968;6.828;2023-02-15T10:27:44;5.90;1.00
21590;DHT22;10957;50.968;6.828;2023-02-15T10:33:04;6.40;12.30
21590;DHT22;10957;50.968;6.828;2023-02-15T10:54:51;7.40;1.00
21590;DHT22;10957;50.968;6.828;2023-02-15T11:10:42;7.50;1.00
21590;DHT22;10957;50.968;6.828;2023-02-15T11:21:05;8.20;1.00
21590;DHT22;10957;50.968;6.828;2023-02-15T11:26:36;8.00;1.00
21590;DHT22;10957;50.968;6.828;2023-02-15T11:31:44;8.20;1.00
21590;DHT22;10957;50.968;6.828;2023-02-15T11:36:47;8.10;1.00
21590;DHT22;10957;50.968;6.828;2023-02-15T11:41:53;8.60;1.00
21590;DHT22;10957;50.968;6.828;2023-02-15T11:46:56;8.90;1.00
21590;DHT22;10957;50.968;6.828;2023-02-15T11:51:59;9.20;1.00
21590;DHT22;10957;50.968;6.828;2023-02-15T11:57:14;9.20;1.00
21590;DHT22;10957;50.968;6.828;2023-02-15T12:02:20;9.30;1.00
21590;DHT22;10957;50.968;6.828;2023-02-15T12:07:30;9.50;1.00
21590;DHT22;10957;50.968;6.828;2023-02-15T12:12:34;9.50;1.00
21590;DHT22;10957;50.968;6.828;2023-02-15T12:17:40;9.90;1.00
21590;DHT22;10957;50.968;6.828;2023-02-15T12:22:51;10.00;1.00
21590;DHT22;10957;50.968;6.828;2023-02-15T12:27:54;10.10;1.00
21590;DHT22;10957;50.968;6.828;2023-02-15T12:33:15;10.00;1.00
21590;DHT22;10957;50.968;6.828;2023-02-15T12:43:35;10.00;1.00
21590;DHT22;10957;50.968;6.828;2023-02-15T12:48:36;11.00;1.00
21590;DHT22;10957;50.968;6.828;2023-02-15T12:53:37;10.40;1.00
21590;DHT22;10957;50.968;6.828;2023-02-15T12:58:41;11.00;1.00
21590;DHT22;10957;50.968;6.828;2023-02-15T13:04:01;11.20;1.00
21590;DHT22;10957;50.968;6.828;2023-02-15T13:14:28;11.30;1.00
21590;DHT22;10957;50.968;6.828;2023-02-15T13:19:43;11.30;1.00
21590;DHT22;10957;50.968;6.828;2023-02-15T13:24:48;11.20;1.00
21590;DHT22;10957;50.968;6.828;2023-02-15T13:29:53;11.20;1.00
21590;DHT22;10957;50.968;6.828;2023-02-15T13:35:01;11.80;1.00
21590;DHT22;10957;50.968;6.828;2023-02-15T13:40:07;11.30;1.00
21590;DHT22;10957;50.968;6.828;2023-02-15T13:45:13;11.80;1.00
21590;DHT22;10957;50.968;6.828;2023-02-15T13:50:54;12.00;1.00
21590;DHT22;10957;50.968;6.828;2023-02-15T14:17:26;11.60;1.00
21590;DHT22;10957;50.968;6.828;2023-02-15T14:22:44;11.70;1.00
21590;DHT22;10957;50.968;6.828;2023-02-15T14:28:06;11.60;1.00
21590;DHT22;10957;50.968;6.828;2023-02-15T14:33:27;11.40;1.00
21590;DHT22;10957;50.968;6.828;2023-02-15T14:49:30;11.30;1.00
21590;DHT22;10957;50.968;6.828;2023-02-15T15:04:59;11.30;1.00
21590;DHT22;10957;50.968;6.828;2023-02-15T15:15:47;11.30;1.00
21590;DHT22;10957;50.968;6.828;2023-02-15T15:20:51;11.10;1.00
21590;DHT22;10957;50.968;6.828;2023-02-15T15:25:57;10.90;1.00
21590;DHT22;10957;50.968;6.828;2023-02-15T15:42:04;10.60;1.00
21590;DHT22;10957;50.968;6.828;2023-02-15T15:47:44;10.40;1.00
21590;DHT22;10957;50.968;6.828;2023-02-15T15:52:57;10.50;1.00
21590;DHT22;10957;50.968;6.828;2023-02-15T15:58:03;10.30;1.00
21590;DHT22;10957;50.968;6.828;2023-02-15T16:03:05;10.20;1.00
21590;DHT22;10957;50.968;6.828;2023-02-15T16:08:26;9.90;1.00
21590;DHT22;10957;50.968;6.828;2023-02-15T16:13:27;9.60;1.00
21590;DHT22;10957;50.968;6.828;2023-02-15T16:18:28;9.50;1.00
21590;DHT22;10957;50.968;6.828;2023-02-15T16:28:37;9.60;1.00
21590;DHT22;10957;50.968;6.828;2023-02-15T16:33:41;9.30;1.00
21590;DHT22;10957;50.968;6.828;2023-02-15T16:43:45;9.10;1.00
21590;DHT22;10957;50.968;6.828;2023-02-15T16:48:51;8.60;1.00
21590;DHT22;10957;50.968;6.828;2023-02-15T16:53:54;8.00;1.00
21590;DHT22;10957;50.968;6.828;2023-02-15T16:58:57;8.30;1.00
21590;DHT22;10957;50.968;6.828;2023-02-15T17:09:22;8.00;1.00
21590;DHT22;10957;50.968;6.828;2023-02-15T17:14:37;8.00;1.00
21590;DHT22;10957;50.968;6.828;2023-02-15T17:19:48;7.90;1.00
21590;DHT22;10957;50.968;6.828;2023-02-15T17:24:58;7.60;1.00
21590;DHT22;10957;50.968;6.828;2023-02-15T17:30:01;7.60;1.00
21590;DHT22;10957;50.968;6.828;2023-02-15T17:35:19;7.70;1.00
21590;DHT22;10957;50.968;6.828;2023-02-15T17:40:27;7.60;1.00
21590;DHT22;10957;50.968;6.828;2023-02-15T17:45:35;7.60;1.00
21590;DHT22;10957;50.968;6.828;2023-02-15T17:50:36;7.50;1.00
21590;DHT22;10957;50.968;6.828;2023-02-15T17:55:37;7.10;1.00
21590;DHT22;10957;50.968;6.828;2023-02-15T18:00:47;7.20;1.00
21590;DHT22;10957;50.968;6.828;2023-02-15T18:06:15;7.20;1.00
21590;DHT22;10957;50.968;6.828;2023-02-15T18:11:35;7.30;1.00
21590;DHT22;10957;50.968;6.828;2023-02-15T18:16:41;7.10;1.00
21590;DHT22;10957;50.968;6.828;2023-02-15T18:21:44;6.50;1.00
21590;DHT22;10957;50.968;6.828;2023-02-15T18:26:46;7.00;8.30
21590;DHT22;10957;50.968;6.828;2023-02-15T18:31:51;6.80;1.00
21590;DHT22;10957;50.968;6.828;2023-02-15T18:36:55;6.60;1.00
21590;DHT22;10957;50.968;6.828;2023-02-15T18:41:57;6.00;30.50
21590;DHT22;10957;50.968;6.828;2023-02-15T18:46:58;6.30;26.70
21590;DHT22;10957;50.968;6.828;2023-02-15T18:52:00;6.40;56.00
21590;DHT22;10957;50.968;6.828;2023-02-15T18:57:02;6.20;66.00
21590;DHT22;10957;50.968;6.828;2023-02-15T19:02:10;6.00;67.30
21590;DHT22;10957;50.968;6.828;2023-02-15T19:07:25;5.50;80.40
21590;DHT22;10957;50.968;6.828;2023-02-15T19:12:27;6.00;99.20
21590;DHT22;10957;50.968;6.828;2023-02-15T19:17:29;5.50;85.70
21590;DHT22;10957;50.968;6.828;2023-02-15T19:22:30;5.50;99.90
21590;DHT22;10957;50.968;6.828;2023-02-15T19:27:34;5.00;99.90
21590;DHT22;10957;50.968;6.828;2023-02-15T19:32:35;5.60;99.90
21590;DHT22;10957;50.968;6.828;2023-02-15T19:37:38;5.10;99.90
21590;DHT22;10957;50.968;6.828;2023-02-15T19:42:41;5.20;99.90
21590;DHT22;10957;50.968;6.828;2023-02-15T19:47:42;5.20;99.90
21590;DHT22;10957;50.968;6.828;2023-02-15T19:52:44;5.20;99.90
21590;DHT22;10957;50.968;6.828;2023-02-15T19:57:46;4.70;99.90
21590;DHT22;10957;50.968;6.828;2023-02-15T20:02:47;5.40;99.90
21590;DHT22;10957;50.968;6.828;2023-02-15T20:07:52;5.50;99.90
21590;DHT22;10957;50.968;6.828;2023-02-15T20:12:54;5.20;99.90
21590;DHT22;10957;50.968;6.828;2023-02-15T20:17:56;5.20;99.90
21590;DHT22;10957;50.968;6.828;2023-02-15T20:22:58;5.20;99.90
21590;DHT22;10957;50.968;6.828;2023-02-15T20:28:00;5.50;99.90
21590;DHT22;10957;50.968;6.828;2023-02-15T20:33:01;5.20;99.90
21590;DHT22;10957;50.968;6.828;2023-02-15T20:38:02;5.10;99.90
21590;DHT22;10957;50.968;6.828;2023-02-15T20:43:11;5.20;99.90
21590;DHT22;10957;50.968;6.828;2023-02-15T20:48:14;5.00;99.90
21590;DHT22;10957;50.968;6.828;2023-02-15T20:53:16;4.70;99.90
21590;DHT22;10957;50.968;6.828;2023-02-15T20:58:21;4.70;99.90
21590;DHT22;10957;50.968;6.828;2023-02-15T21:03:24;4.80;99.90
21590;DHT22;10957;50.968;6.828;2023-02-15T21:08:30;4.30;99.90
21590;DHT22;10957;50.968;6.828;2023-02-15T21:13:33;4.80;99.90
21590;DHT22;10957;50.968;6.828;2023-02-15T21:18:34;4.70;99.90
21590;DHT22;10957;50.968;6.828;2023-02-15T21:23:40;4.60;99.90
21590;DHT22;10957;50.968;6.828;2023-02-15T21:28:41;4.60;99.90
21590;DHT22;10957;50.968;6.828;2023-02-15T21:33:43;4.60;99.90
21590;DHT22;10957;50.968;6.828;2023-02-15T21:38:45;4.50;99.90
21590;DHT22;10957;50.968;6.828;2023-02-15T21:43:47;4.40;99.90
21590;DHT22;10957;50.968;6.828;2023-02-15T21:49:07;4.00;99.90
21590;DHT22;10957;50.968;6.828;2023-02-15T21:54:14;3.90;99.90
21590;DHT22;10957;50.968;6.828;2023-02-15T21:59:17;3.80;99.90
21590;DHT22;10957;50.968;6.828;2023-02-15T22:04:24;4.00;99.90
21590;DHT22;10957;50.968;6.828;2023-02-15T22:09:26;3.60;99.90
21590;DHT22;10957;50.968;6.828;2023-02-15T22:14:39;3.60;99.90
21590;DHT22;10957;50.968;6.828;2023-02-15T22:19:42;3.90;99.90
21590;DHT22;10957;50.968;6.828;2023-02-15T22:24:44;3.60;99.90
21590;DHT22;10957;50.968;6.828;2023-02-15T22:29:45;3.40;99.90
21590;DHT22;10957;50.968;6.828;2023-02-15T22:34:47;3.20;99.90
21590;DHT22;10957;50.968;6.828;2023-02-15T22:39:48;3.20;99.90
21590;DHT22;10957;50.968;6.828;2023-02-15T22:44:51;3.00;99.90
21590;DHT22;10957;50.968;6.828;2023-02-15T22:49:53;3.00;99.90
21590;DHT22;10957;50.968;6.828;2023-02-15T22:54:54;2.80;99.90
21590;DHT22;10957;50.968;6.828;2023-02-15T22:59:56;2.90;99.90
21590;DHT22;10957;50.968;6.828;2023-02-15T23:04:57;2.70;99.90
21590;DHT22;10957;50.968;6.828;2023-02-15T23:09:58;2.80;99.90
21590;DHT22;10957;50.968;6.828;2023-02-15T23:15:00;2.70;99.90
21590;DHT22;10957;50.968;6.828;2023-02-15T23:20:01;2.60;99.90
21590;DHT22;10957;50.968;6.828;2023-02-15T23:25:07;2.70;99.90
21590;DHT22;10957;50.968;6.828;2023-02-15T23:30:12;2.50;99.90
21590;DHT22;10957;50.968;6.828;2023-02-15T23:35:15;2.60;99.90
21590;DHT22;10957;50.968;6.828;2023-02-15T23:40:19;2.60;99.90
21590;DHT22;10957;50.968;6.828;2023-02-15T23:45:39;2.40;99.90
21590;DHT22;10957;50.968;6.828;2023-02-15T23:50:41;2.70;99.90
21590;DHT22;10957;50.968;6.828;2023-02-15T23:55:43;2.50;99.90
